sensor_id;sensor_type;location;lat;lon;timestamp;P1;durP1;ratioP1;P2;durP2;ratioP2
56373;SDS011;58212;47.034;7.376;2024-02-21T00:00:52;2.92;;;2.00;;
56373;SDS011;58212;47.034;7.376;2024-02-21T00:03:20;2.53;;;2.33;;
56373;SDS011;58212;47.034;7.376;2024-02-21T00:05:48;2.83;;;2.30;;
56373;SDS011;58212;47.034;7.376;2024-02-21T00:08:15;2.40;;;2.20;;
56373;SDS011;58212;47.034;7.376;2024-02-21T00:10:41;2.65;;;2.20;;
56373;SDS011;58212;47.034;7.376;2024-02-21T00:13:08;2.70;;;2.30;;
56373;SDS011;58212;47.034;7.376;2024-02-21T00:15:35;3.75;;;2.40;;
56373;SDS011;58212;47.034;7.376;2024-02-21T00:18:03;5.75;;;2.60;;
56373;SDS011;58212;47.034;7.376;2024-02-21T00:20:30;2.72;;;2.30;;
56373;SDS011;58212;47.034;7.376;2024-02-21T00:22:58;3.92;;;2.55;;
56373;SDS011;58212;47.034;7.376;2024-02-21T00:25:25;2.40;;;2.05;;
56373;SDS011;58212;47.034;7.376;2024-02-21T00:27:52;2.90;;;2.20;;
56373;SDS011;58212;47.034;7.376;2024-02-21T00:30:20;9.20;;;2.42;;
56373;SDS011;58212;47.034;7.376;2024-02-21T00:32:46;3.40;;;2.10;;
56373;SDS011;58212;47.034;7.376;2024-02-21T00:35:14;3.85;;;2.45;;
56373;SDS011;58212;47.034;7.376;2024-02-21T00:37:41;3.40;;;2.13;;
56373;SDS011;58212;47.034;7.376;2024-02-21T00:40:09;3.65;;;2.42;;
56373;SDS011;58212;47.034;7.376;2024-02-21T00:42:37;4.45;;;2.33;;
56373;SDS011;58212;47.034;7.376;2024-02-21T00:45:04;3.35;;;2.67;;
56373;SDS011;58212;47.034;7.376;2024-02-21T00:47:32;3.92;;;2.22;;
56373;SDS011;58212;47.034;7.376;2024-02-21T00:49:59;3.58;;;2.13;;
56373;SDS011;58212;47.034;7.376;2024-02-21T00:52:25;3.17;;;2.00;;
56373;SDS011;58212;47.034;7.376;2024-02-21T00:54:52;2.47;;;2.10;;
56373;SDS011;58212;47.034;7.376;2024-02-21T00:57:20;3.53;;;2.35;;
56373;SDS011;58212;47.034;7.376;2024-02-21T00:59:47;3.47;;;2.33;;
56373;SDS011;58212;47.034;7.376;2024-02-21T01:02:14;3.13;;;2.03;;
56373;SDS011;58212;47.034;7.376;2024-02-21T01:04:41;3.10;;;2.40;;
56373;SDS011;58212;47.034;7.376;2024-02-21T01:07:08;3.75;;;2.92;;
56373;SDS011;58212;47.034;7.376;2024-02-21T01:09:35;3.08;;;2.63;;
56373;SDS011;58212;47.034;7.376;2024-02-21T01:12:01;2.72;;;2.38;;
56373;SDS011;58212;47.034;7.376;2024-02-21T01:14:30;5.03;;;2.33;;
56373;SDS011;58212;47.034;7.376;2024-02-21T01:16:57;3.33;;;2.13;;
56373;SDS011;58212;47.034;7.376;2024-02-21T01:19:24;3.25;;;2.60;;
56373;SDS011;58212;47.034;7.376;2024-02-21T01:21:50;3.65;;;2.30;;
56373;SDS011;58212;47.034;7.376;2024-02-21T01:24:17;3.58;;;2.17;;
56373;SDS011;58212;47.034;7.376;2024-02-21T01:26:44;3.47;;;2.13;;
56373;SDS011;58212;47.034;7.376;2024-02-21T01:29:11;2.53;;;2.20;;
56373;SDS011;58212;47.034;7.376;2024-02-21T01:31:39;2.78;;;2.33;;
56373;SDS011;58212;47.034;7.376;2024-02-21T01:34:06;2.05;;;1.73;;
56373;SDS011;58212;47.034;7.376;2024-02-21T01:36:33;3.88;;;2.40;;
56373;SDS011;58212;47.034;7.376;2024-02-21T01:39:00;3.00;;;2.70;;
56373;SDS011;58212;47.034;7.376;2024-02-21T01:41:29;2.75;;;2.10;;
56373;SDS011;58212;47.034;7.376;2024-02-21T01:43:56;2.38;;;2.13;;
56373;SDS011;58212;47.034;7.376;2024-02-21T01:46:23;2.45;;;2.25;;
56373;SDS011;58212;47.034;7.376;2024-02-21T01:48:55;2.45;;;1.90;;
56373;SDS011;58212;47.034;7.376;2024-02-21T01:51:22;2.45;;;1.95;;
56373;SDS011;58212;47.034;7.376;2024-02-21T01:53:49;3.22;;;2.00;;
56373;SDS011;58212;47.034;7.376;2024-02-21T01:56:18;1.88;;;1.63;;
56373;SDS011;58212;47.034;7.376;2024-02-21T01:58:45;4.68;;;2.22;;
56373;SDS011;58212;47.034;7.376;2024-02-21T02:01:14;2.97;;;2.00;;
56373;SDS011;58212;47.034;7.376;2024-02-21T02:03:42;3.28;;;1.75;;
56373;SDS011;58212;47.034;7.376;2024-02-21T02:06:13;2.28;;;1.80;;
56373;SDS011;58212;47.034;7.376;2024-02-21T02:08:40;3.08;;;2.15;;
56373;SDS011;58212;47.034;7.376;2024-02-21T02:11:08;1.95;;;1.70;;
56373;SDS011;58212;47.034;7.376;2024-02-21T02:13:35;2.60;;;1.80;;
56373;SDS011;58212;47.034;7.376;2024-02-21T02:16:01;2.67;;;1.95;;
56373;SDS011;58212;47.034;7.376;2024-02-21T02:18:29;1.88;;;1.77;;
56373;SDS011;58212;47.034;7.376;2024-02-21T02:20:55;3.17;;;2.10;;
56373;SDS011;58212;47.034;7.376;2024-02-21T02:23:24;2.45;;;1.77;;
56373;SDS011;58212;47.034;7.376;2024-02-21T02:25:51;2.60;;;1.65;;
56373;SDS011;58212;47.034;7.376;2024-02-21T02:28:18;2.05;;;1.75;;
56373;SDS011;58212;47.034;7.376;2024-02-21T02:30:45;1.80;;;1.70;;
56373;SDS011;58212;47.034;7.376;2024-02-21T02:33:12;1.45;;;1.35;;
56373;SDS011;58212;47.034;7.376;2024-02-21T02:35:39;3.83;;;1.80;;
56373;SDS011;58212;47.034;7.376;2024-02-21T02:38:06;2.13;;;1.60;;
56373;SDS011;58212;47.034;7.376;2024-02-21T02:40:34;2.10;;;1.60;;
56373;SDS011;58212;47.034;7.376;2024-02-21T02:43:01;2.42;;;1.67;;
56373;SDS011;58212;47.034;7.376;2024-02-21T02:45:28;2.90;;;1.77;;
56373;SDS011;58212;47.034;7.376;2024-02-21T02:47:55;2.30;;;2.10;;
56373;SDS011;58212;47.034;7.376;2024-02-21T02:50:22;1.85;;;1.50;;
56373;SDS011;58212;47.034;7.376;2024-02-21T02:52:49;1.73;;;1.35;;
56373;SDS011;58212;47.034;7.376;2024-02-21T02:55:16;1.88;;;1.77;;
56373;SDS011;58212;47.034;7.376;2024-02-21T02:57:44;1.80;;;1.60;;
56373;SDS011;58212;47.034;7.376;2024-02-21T03:00:12;2.22;;;1.40;;
56373;SDS011;58212;47.034;7.376;2024-02-21T03:02:42;1.80;;;1.70;;
56373;SDS011;58212;47.034;7.376;2024-02-21T03:05:13;1.63;;;1.52;;
56373;SDS011;58212;47.034;7.376;2024-02-21T03:07:41;3.72;;;1.55;;
56373;SDS011;58212;47.034;7.376;2024-02-21T03:10:09;1.52;;;1.30;;
56373;SDS011;58212;47.034;7.376;2024-02-21T03:12:36;1.95;;;1.40;;
56373;SDS011;58212;47.034;7.376;2024-02-21T03:15:05;1.42;;;1.33;;
56373;SDS011;58212;47.034;7.376;2024-02-21T03:17:32;2.60;;;1.65;;
56373;SDS011;58212;47.034;7.376;2024-02-21T03:20:00;2.50;;;1.63;;
56373;SDS011;58212;47.034;7.376;2024-02-21T03:22:30;1.55;;;1.45;;
56373;SDS011;58212;47.034;7.376;2024-02-21T03:24:57;1.50;;;1.35;;
56373;SDS011;58212;47.034;7.376;2024-02-21T03:27:24;2.75;;;1.48;;
56373;SDS011;58212;47.034;7.376;2024-02-21T03:29:51;1.92;;;1.30;;
56373;SDS011;58212;47.034;7.376;2024-02-21T03:32:19;1.55;;;1.35;;
56373;SDS011;58212;47.034;7.376;2024-02-21T03:34:46;3.03;;;1.52;;
56373;SDS011;58212;47.034;7.376;2024-02-21T03:37:13;2.83;;;1.25;;
56373;SDS011;58212;47.034;7.376;2024-02-21T03:39:40;1.73;;;1.13;;
56373;SDS011;58212;47.034;7.376;2024-02-21T03:42:06;2.92;;;1.30;;
56373;SDS011;58212;47.034;7.376;2024-02-21T03:44:33;2.47;;;1.20;;
56373;SDS011;58212;47.034;7.376;2024-02-21T03:47:00;1.40;;;1.30;;
56373;SDS011;58212;47.034;7.376;2024-02-21T03:49:28;2.22;;;1.58;;
56373;SDS011;58212;47.034;7.376;2024-02-21T03:51:55;2.65;;;1.40;;
56373;SDS011;58212;47.034;7.376;2024-02-21T03:54:22;3.85;;;1.67;;
56373;SDS011;58212;47.034;7.376;2024-02-21T03:56:49;3.67;;;1.58;;
56373;SDS011;58212;47.034;7.376;2024-02-21T03:59:16;3.67;;;1.45;;
56373;SDS011;58212;47.034;7.376;2024-02-21T04:01:43;2.83;;;1.63;;
56373;SDS011;58212;47.034;7.376;2024-02-21T04:04:10;1.92;;;1.40;;
56373;SDS011;58212;47.034;7.376;2024-02-21T04:06:45;2.55;;;1.88;;
56373;SDS011;58212;47.034;7.376;2024-02-21T04:09:12;4.03;;;1.80;;
56373;SDS011;58212;47.034;7.376;2024-02-21T04:11:39;4.18;;;1.90;;
56373;SDS011;58212;47.034;7.376;2024-02-21T04:14:06;3.05;;;1.63;;
56373;SDS011;58212;47.034;7.376;2024-02-21T04:16:34;3.33;;;1.83;;
56373;SDS011;58212;47.034;7.376;2024-02-21T04:19:01;2.42;;;1.60;;
56373;SDS011;58212;47.034;7.376;2024-02-21T04:21:28;2.60;;;1.95;;
56373;SDS011;58212;47.034;7.376;2024-02-21T04:23:56;3.40;;;1.77;;
56373;SDS011;58212;47.034;7.376;2024-02-21T04:26:23;3.45;;;1.60;;
56373;SDS011;58212;47.034;7.376;2024-02-21T04:28:50;3.15;;;1.77;;
56373;SDS011;58212;47.034;7.376;2024-02-21T04:31:16;2.75;;;1.60;;
56373;SDS011;58212;47.034;7.376;2024-02-21T04:33:43;2.95;;;1.77;;
56373;SDS011;58212;47.034;7.376;2024-02-21T04:36:10;3.47;;;1.70;;
56373;SDS011;58212;47.034;7.376;2024-02-21T04:38:37;4.15;;;2.33;;
56373;SDS011;58212;47.034;7.376;2024-02-21T04:41:05;3.53;;;1.90;;
56373;SDS011;58212;47.034;7.376;2024-02-21T04:43:33;1.98;;;1.67;;
56373;SDS011;58212;47.034;7.376;2024-02-21T04:46:00;2.67;;;1.88;;
56373;SDS011;58212;47.034;7.376;2024-02-21T04:48:26;4.40;;;2.35;;
56373;SDS011;58212;47.034;7.376;2024-02-21T04:50:53;5.65;;;2.10;;
56373;SDS011;58212;47.034;7.376;2024-02-21T04:53:20;4.60;;;2.30;;
56373;SDS011;58212;47.034;7.376;2024-02-21T04:55:47;5.10;;;2.20;;
56373;SDS011;58212;47.034;7.376;2024-02-21T04:58:15;5.90;;;2.10;;
56373;SDS011;58212;47.034;7.376;2024-02-21T05:00:42;5.78;;;2.22;;
56373;SDS011;58212;47.034;7.376;2024-02-21T05:03:08;3.03;;;1.85;;
56373;SDS011;58212;47.034;7.376;2024-02-21T05:05:36;2.97;;;1.90;;
56373;SDS011;58212;47.034;7.376;2024-02-21T05:08:03;6.20;;;2.05;;
56373;SDS011;58212;47.034;7.376;2024-02-21T05:10:30;3.47;;;1.90;;
56373;SDS011;58212;47.034;7.376;2024-02-21T05:12:57;4.68;;;1.67;;
56373;SDS011;58212;47.034;7.376;2024-02-21T05:15:25;2.92;;;1.95;;
56373;SDS011;58212;47.034;7.376;2024-02-21T05:17:52;3.72;;;2.13;;
56373;SDS011;58212;47.034;7.376;2024-02-21T05:20:19;2.65;;;2.08;;
56373;SDS011;58212;47.034;7.376;2024-02-21T05:22:45;2.42;;;2.22;;
56373;SDS011;58212;47.034;7.376;2024-02-21T05:25:12;3.88;;;2.00;;
56373;SDS011;58212;47.034;7.376;2024-02-21T05:27:39;3.53;;;1.92;;
56373;SDS011;58212;47.034;7.376;2024-02-21T05:30:06;3.72;;;1.55;;
56373;SDS011;58212;47.034;7.376;2024-02-21T05:32:36;4.15;;;2.20;;
56373;SDS011;58212;47.034;7.376;2024-02-21T05:35:03;2.53;;;1.88;;
56373;SDS011;58212;47.034;7.376;2024-02-21T05:37:30;3.10;;;1.77;;
56373;SDS011;58212;47.034;7.376;2024-02-21T05:39:57;2.85;;;1.70;;
56373;SDS011;58212;47.034;7.376;2024-02-21T05:42:23;6.28;;;1.85;;
56373;SDS011;58212;47.034;7.376;2024-02-21T05:44:50;3.78;;;2.25;;
56373;SDS011;58212;47.034;7.376;2024-02-21T05:47:17;5.20;;;2.05;;
56373;SDS011;58212;47.034;7.376;2024-02-21T05:49:47;2.90;;;1.85;;
56373;SDS011;58212;47.034;7.376;2024-02-21T05:52:14;4.28;;;2.20;;
56373;SDS011;58212;47.034;7.376;2024-02-21T05:54:41;3.70;;;2.00;;
56373;SDS011;58212;47.034;7.376;2024-02-21T05:57:07;2.90;;;1.90;;
56373;SDS011;58212;47.034;7.376;2024-02-21T05:59:34;3.53;;;1.83;;
56373;SDS011;58212;47.034;7.376;2024-02-21T06:02:05;5.28;;;1.85;;
56373;SDS011;58212;47.034;7.376;2024-02-21T06:04:31;4.20;;;1.90;;
56373;SDS011;58212;47.034;7.376;2024-02-21T06:07:00;2.58;;;1.73;;
56373;SDS011;58212;47.034;7.376;2024-02-21T06:09:27;3.22;;;1.65;;
56373;SDS011;58212;47.034;7.376;2024-02-21T06:11:53;4.38;;;2.03;;
56373;SDS011;58212;47.034;7.376;2024-02-21T06:14:20;5.55;;;1.88;;
56373;SDS011;58212;47.034;7.376;2024-02-21T06:16:47;3.10;;;2.15;;
56373;SDS011;58212;47.034;7.376;2024-02-21T06:19:14;5.55;;;2.30;;
56373;SDS011;58212;47.034;7.376;2024-02-21T06:21:40;3.78;;;2.20;;
56373;SDS011;58212;47.034;7.376;2024-02-21T06:24:08;3.33;;;2.42;;
56373;SDS011;58212;47.034;7.376;2024-02-21T06:26:34;4.57;;;2.38;;
56373;SDS011;58212;47.034;7.376;2024-02-21T06:29:01;3.60;;;2.10;;
56373;SDS011;58212;47.034;7.376;2024-02-21T06:31:28;3.75;;;2.20;;
56373;SDS011;58212;47.034;7.376;2024-02-21T06:33:56;3.83;;;2.20;;
56373;SDS011;58212;47.034;7.376;2024-02-21T06:36:23;4.05;;;1.95;;
56373;SDS011;58212;47.034;7.376;2024-02-21T06:38:50;3.92;;;2.55;;
56373;SDS011;58212;47.034;7.376;2024-02-21T06:41:18;6.45;;;2.20;;
56373;SDS011;58212;47.034;7.376;2024-02-21T06:43:45;5.20;;;2.38;;
56373;SDS011;58212;47.034;7.376;2024-02-21T06:46:12;2.47;;;1.75;;
56373;SDS011;58212;47.034;7.376;2024-02-21T06:48:38;2.47;;;1.60;;
56373;SDS011;58212;47.034;7.376;2024-02-21T06:51:05;6.38;;;2.47;;
56373;SDS011;58212;47.034;7.376;2024-02-21T06:53:32;3.70;;;2.03;;
56373;SDS011;58212;47.034;7.376;2024-02-21T06:55:58;3.65;;;2.00;;
56373;SDS011;58212;47.034;7.376;2024-02-21T06:58:27;3.05;;;1.60;;
56373;SDS011;58212;47.034;7.376;2024-02-21T07:00:53;4.10;;;2.10;;
56373;SDS011;58212;47.034;7.376;2024-02-21T07:03:20;2.97;;;2.15;;
56373;SDS011;58212;47.034;7.376;2024-02-21T07:05:49;3.67;;;2.95;;
56373;SDS011;58212;47.034;7.376;2024-02-21T07:08:15;2.67;;;2.47;;
56373;SDS011;58212;47.034;7.376;2024-02-21T07:10:42;4.43;;;2.35;;
56373;SDS011;58212;47.034;7.376;2024-02-21T07:13:09;3.63;;;2.10;;
56373;SDS011;58212;47.034;7.376;2024-02-21T07:15:37;2.25;;;1.80;;
56373;SDS011;58212;47.034;7.376;2024-02-21T07:18:04;4.70;;;1.58;;
56373;SDS011;58212;47.034;7.376;2024-02-21T07:20:31;2.58;;;1.63;;
56373;SDS011;58212;47.034;7.376;2024-02-21T07:22:58;3.60;;;2.25;;
56373;SDS011;58212;47.034;7.376;2024-02-21T07:25:25;2.75;;;1.73;;
56373;SDS011;58212;47.034;7.376;2024-02-21T07:27:52;3.05;;;2.13;;
56373;SDS011;58212;47.034;7.376;2024-02-21T07:30:19;4.63;;;2.30;;
56373;SDS011;58212;47.034;7.376;2024-02-21T07:32:48;1.90;;;1.70;;
56373;SDS011;58212;47.034;7.376;2024-02-21T07:35:15;4.45;;;2.10;;
56373;SDS011;58212;47.034;7.376;2024-02-21T07:37:42;3.00;;;1.83;;
56373;SDS011;58212;47.034;7.376;2024-02-21T07:40:12;2.35;;;1.50;;
56373;SDS011;58212;47.034;7.376;2024-02-21T07:42:39;2.38;;;1.67;;
56373;SDS011;58212;47.034;7.376;2024-02-21T07:45:07;3.47;;;2.05;;
56373;SDS011;58212;47.034;7.376;2024-02-21T07:47:34;2.53;;;2.33;;
56373;SDS011;58212;47.034;7.376;2024-02-21T07:50:03;3.03;;;2.03;;
56373;SDS011;58212;47.034;7.376;2024-02-21T07:52:30;4.60;;;2.83;;
56373;SDS011;58212;47.034;7.376;2024-02-21T07:54:56;3.67;;;2.60;;
56373;SDS011;58212;47.034;7.376;2024-02-21T07:57:23;5.75;;;3.08;;
56373;SDS011;58212;47.034;7.376;2024-02-21T07:59:50;5.38;;;3.40;;
56373;SDS011;58212;47.034;7.376;2024-02-21T08:02:17;3.67;;;3.08;;
56373;SDS011;58212;47.034;7.376;2024-02-21T08:04:44;6.05;;;3.78;;
56373;SDS011;58212;47.034;7.376;2024-02-21T08:07:12;4.10;;;2.60;;
56373;SDS011;58212;47.034;7.376;2024-02-21T08:09:39;4.72;;;3.20;;
56373;SDS011;58212;47.034;7.376;2024-02-21T08:12:06;6.00;;;3.38;;
56373;SDS011;58212;47.034;7.376;2024-02-21T08:14:33;5.03;;;3.28;;
56373;SDS011;58212;47.034;7.376;2024-02-21T08:17:00;3.65;;;3.30;;
56373;SDS011;58212;47.034;7.376;2024-02-21T08:19:26;5.47;;;3.50;;
56373;SDS011;58212;47.034;7.376;2024-02-21T08:21:53;5.53;;;3.70;;
56373;SDS011;58212;47.034;7.376;2024-02-21T08:24:21;7.32;;;4.30;;
56373;SDS011;58212;47.034;7.376;2024-02-21T08:26:48;7.25;;;4.20;;
56373;SDS011;58212;47.034;7.376;2024-02-21T08:29:15;4.65;;;4.15;;
56373;SDS011;58212;47.034;7.376;2024-02-21T08:31:42;6.18;;;3.67;;
56373;SDS011;58212;47.034;7.376;2024-02-21T08:34:08;4.60;;;3.47;;
56373;SDS011;58212;47.034;7.376;2024-02-21T08:36:35;4.25;;;3.67;;
56373;SDS011;58212;47.034;7.376;2024-02-21T08:39:03;4.65;;;3.80;;
56373;SDS011;58212;47.034;7.376;2024-02-21T08:41:32;5.70;;;3.90;;
56373;SDS011;58212;47.034;7.376;2024-02-21T08:43:59;5.55;;;3.88;;
56373;SDS011;58212;47.034;7.376;2024-02-21T08:46:26;6.75;;;3.70;;
56373;SDS011;58212;47.034;7.376;2024-02-21T08:48:53;4.38;;;3.65;;
56373;SDS011;58212;47.034;7.376;2024-02-21T08:51:20;4.40;;;4.00;;
56373;SDS011;58212;47.034;7.376;2024-02-21T08:53:47;5.60;;;4.30;;
56373;SDS011;58212;47.034;7.376;2024-02-21T08:56:14;8.10;;;3.80;;
56373;SDS011;58212;47.034;7.376;2024-02-21T08:58:42;7.55;;;4.68;;
56373;SDS011;58212;47.034;7.376;2024-02-21T09:01:09;5.43;;;4.00;;
56373;SDS011;58212;47.034;7.376;2024-02-21T09:03:36;6.80;;;4.55;;
56373;SDS011;58212;47.034;7.376;2024-02-21T09:06:04;4.32;;;3.92;;
56373;SDS011;58212;47.034;7.376;2024-02-21T09:08:31;4.43;;;3.88;;
56373;SDS011;58212;47.034;7.376;2024-02-21T09:10:57;5.72;;;3.85;;
56373;SDS011;58212;47.034;7.376;2024-02-21T09:13:26;5.18;;;3.80;;
56373;SDS011;58212;47.034;7.376;2024-02-21T09:15:54;4.80;;;3.88;;
56373;SDS011;58212;47.034;7.376;2024-02-21T09:18:21;7.72;;;4.13;;
56373;SDS011;58212;47.034;7.376;2024-02-21T09:20:47;4.60;;;4.10;;
56373;SDS011;58212;47.034;7.376;2024-02-21T09:23:14;5.63;;;4.20;;
56373;SDS011;58212;47.034;7.376;2024-02-21T09:25:41;7.28;;;4.78;;
56373;SDS011;58212;47.034;7.376;2024-02-21T09:28:08;5.88;;;4.20;;
56373;SDS011;58212;47.034;7.376;2024-02-21T09:30:35;6.65;;;4.30;;
56373;SDS011;58212;47.034;7.376;2024-02-21T09:33:04;6.70;;;4.50;;
56373;SDS011;58212;47.034;7.376;2024-02-21T09:35:31;6.38;;;5.10;;
56373;SDS011;58212;47.034;7.376;2024-02-21T09:37:59;7.70;;;4.32;;
56373;SDS011;58212;47.034;7.376;2024-02-21T09:40:26;5.00;;;3.92;;
56373;SDS011;58212;47.034;7.376;2024-02-21T09:42:55;7.20;;;5.07;;
56373;SDS011;58212;47.034;7.376;2024-02-21T09:45:30;5.82;;;4.60;;
56373;SDS011;58212;47.034;7.376;2024-02-21T09:48:10;7.35;;;4.57;;
56373;SDS011;58212;47.034;7.376;2024-02-21T09:50:46;8.70;;;4.57;;
56373;SDS011;58212;47.034;7.376;2024-02-21T09:53:13;5.40;;;4.10;;
56373;SDS011;58212;47.034;7.376;2024-02-21T09:55:41;4.90;;;3.85;;
56373;SDS011;58212;47.034;7.376;2024-02-21T09:58:10;7.15;;;4.65;;
56373;SDS011;58212;47.034;7.376;2024-02-21T10:00:37;5.55;;;4.40;;
56373;SDS011;58212;47.034;7.376;2024-02-21T10:03:04;7.00;;;4.53;;
56373;SDS011;58212;47.034;7.376;2024-02-21T10:05:36;4.57;;;4.00;;
56373;SDS011;58212;47.034;7.376;2024-02-21T10:08:04;5.13;;;3.85;;
56373;SDS011;58212;47.034;7.376;2024-02-21T10:10:40;3.95;;;3.08;;
56373;SDS011;58212;47.034;7.376;2024-02-21T10:13:08;3.00;;;2.17;;
56373;SDS011;58212;47.034;7.376;2024-02-21T10:15:35;2.70;;;2.10;;
56373;SDS011;58212;47.034;7.376;2024-02-21T10:18:02;2.30;;;2.10;;
56373;SDS011;58212;47.034;7.376;2024-02-21T10:20:29;3.97;;;2.60;;
56373;SDS011;58212;47.034;7.376;2024-02-21T10:23:04;3.95;;;2.75;;
56373;SDS011;58212;47.034;7.376;2024-02-21T10:25:34;3.45;;;2.90;;
56373;SDS011;58212;47.034;7.376;2024-02-21T10:28:03;5.22;;;2.75;;
56373;SDS011;58212;47.034;7.376;2024-02-21T10:30:30;4.13;;;2.78;;
56373;SDS011;58212;47.034;7.376;2024-02-21T10:32:57;5.38;;;2.65;;
56373;SDS011;58212;47.034;7.376;2024-02-21T10:35:27;3.15;;;2.72;;
56373;SDS011;58212;47.034;7.376;2024-02-21T10:37:55;2.95;;;2.70;;
56373;SDS011;58212;47.034;7.376;2024-02-21T10:40:24;3.75;;;2.85;;
56373;SDS011;58212;47.034;7.376;2024-02-21T10:42:54;3.38;;;2.53;;
56373;SDS011;58212;47.034;7.376;2024-02-21T10:45:26;3.25;;;2.42;;
56373;SDS011;58212;47.034;7.376;2024-02-21T10:47:59;3.45;;;2.80;;
56373;SDS011;58212;47.034;7.376;2024-02-21T10:50:32;3.25;;;2.53;;
56373;SDS011;58212;47.034;7.376;2024-02-21T10:53:09;3.60;;;2.55;;
56373;SDS011;58212;47.034;7.376;2024-02-21T10:55:53;3.78;;;2.78;;
56373;SDS011;58212;47.034;7.376;2024-02-21T10:58:28;3.88;;;2.45;;
56373;SDS011;58212;47.034;7.376;2024-02-21T11:00:57;3.67;;;2.78;;
56373;SDS011;58212;47.034;7.376;2024-02-21T11:03:24;3.85;;;2.75;;
56373;SDS011;58212;47.034;7.376;2024-02-21T11:05:50;4.15;;;3.22;;
56373;SDS011;58212;47.034;7.376;2024-02-21T11:08:18;3.70;;;2.83;;
56373;SDS011;58212;47.034;7.376;2024-02-21T11:10:45;3.67;;;2.97;;
56373;SDS011;58212;47.034;7.376;2024-02-21T11:13:14;3.40;;;3.10;;
56373;SDS011;58212;47.034;7.376;2024-02-21T11:15:40;4.30;;;3.05;;
56373;SDS011;58212;47.034;7.376;2024-02-21T11:18:08;4.55;;;3.92;;
56373;SDS011;58212;47.034;7.376;2024-02-21T11:20:35;4.55;;;3.75;;
56373;SDS011;58212;47.034;7.376;2024-02-21T11:23:03;4.28;;;3.47;;
56373;SDS011;58212;47.034;7.376;2024-02-21T11:25:30;5.70;;;3.45;;
56373;SDS011;58212;47.034;7.376;2024-02-21T11:27:59;4.63;;;4.00;;
56373;SDS011;58212;47.034;7.376;2024-02-21T11:30:29;7.15;;;3.65;;
56373;SDS011;58212;47.034;7.376;2024-02-21T11:33:01;3.85;;;3.55;;
56373;SDS011;58212;47.034;7.376;2024-02-21T11:35:31;4.22;;;3.83;;
56373;SDS011;58212;47.034;7.376;2024-02-21T11:38:09;3.65;;;3.35;;
56373;SDS011;58212;47.034;7.376;2024-02-21T11:40:40;6.30;;;3.75;;
56373;SDS011;58212;47.034;7.376;2024-02-21T11:43:07;4.72;;;3.72;;
56373;SDS011;58212;47.034;7.376;2024-02-21T11:45:35;4.72;;;3.83;;
56373;SDS011;58212;47.034;7.376;2024-02-21T11:48:03;4.22;;;3.33;;
56373;SDS011;58212;47.034;7.376;2024-02-21T11:50:33;4.60;;;4.20;;
56373;SDS011;58212;47.034;7.376;2024-02-21T11:53:00;4.63;;;3.75;;
56373;SDS011;58212;47.034;7.376;2024-02-21T11:55:27;4.72;;;4.00;;
56373;SDS011;58212;47.034;7.376;2024-02-21T11:57:54;5.72;;;3.88;;
56373;SDS011;58212;47.034;7.376;2024-02-21T12:00:21;6.47;;;4.15;;
56373;SDS011;58212;47.034;7.376;2024-02-21T12:02:51;4.38;;;3.97;;
56373;SDS011;58212;47.034;7.376;2024-02-21T12:05:18;5.07;;;4.03;;
56373;SDS011;58212;47.034;7.376;2024-02-21T12:07:46;5.30;;;3.63;;
56373;SDS011;58212;47.034;7.376;2024-02-21T12:10:13;4.20;;;3.50;;
56373;SDS011;58212;47.034;7.376;2024-02-21T12:12:40;5.05;;;3.85;;
56373;SDS011;58212;47.034;7.376;2024-02-21T12:15:07;4.53;;;3.60;;
56373;SDS011;58212;47.034;7.376;2024-02-21T12:17:34;4.30;;;3.63;;
56373;SDS011;58212;47.034;7.376;2024-02-21T12:20:03;4.85;;;3.97;;
56373;SDS011;58212;47.034;7.376;2024-02-21T12:22:35;4.15;;;3.50;;
56373;SDS011;58212;47.034;7.376;2024-02-21T12:25:02;4.60;;;3.55;;
56373;SDS011;58212;47.034;7.376;2024-02-21T12:27:30;4.35;;;3.22;;
56373;SDS011;58212;47.034;7.376;2024-02-21T12:29:57;4.88;;;3.20;;
56373;SDS011;58212;47.034;7.376;2024-02-21T12:32:24;4.38;;;3.55;;
56373;SDS011;58212;47.034;7.376;2024-02-21T12:34:50;5.55;;;3.50;;
56373;SDS011;58212;47.034;7.376;2024-02-21T12:37:18;11.55;;;3.80;;
56373;SDS011;58212;47.034;7.376;2024-02-21T12:39:46;2.70;;;2.50;;
56373;SDS011;58212;47.034;7.376;2024-02-21T12:42:12;3.05;;;2.75;;
56373;SDS011;58212;47.034;7.376;2024-02-21T12:44:39;3.13;;;2.75;;
56373;SDS011;58212;47.034;7.376;2024-02-21T12:47:07;4.10;;;3.15;;
56373;SDS011;58212;47.034;7.376;2024-02-21T12:49:33;3.97;;;3.47;;
56373;SDS011;58212;47.034;7.376;2024-02-21T12:52:00;4.00;;;3.35;;
56373;SDS011;58212;47.034;7.376;2024-02-21T12:54:30;3.95;;;3.40;;
56373;SDS011;58212;47.034;7.376;2024-02-21T12:56:57;4.03;;;3.55;;
56373;SDS011;58212;47.034;7.376;2024-02-21T12:59:27;4.15;;;3.75;;
56373;SDS011;58212;47.034;7.376;2024-02-21T13:01:54;4.60;;;3.72;;
56373;SDS011;58212;47.034;7.376;2024-02-21T13:04:21;4.32;;;3.75;;
56373;SDS011;58212;47.034;7.376;2024-02-21T13:06:49;4.15;;;3.85;;
56373;SDS011;58212;47.034;7.376;2024-02-21T13:09:16;3.92;;;3.53;;
56373;SDS011;58212;47.034;7.376;2024-02-21T13:11:44;5.03;;;4.13;;
56373;SDS011;58212;47.034;7.376;2024-02-21T13:14:11;4.43;;;3.90;;
56373;SDS011;58212;47.034;7.376;2024-02-21T13:16:38;4.65;;;4.18;;
56373;SDS011;58212;47.034;7.376;2024-02-21T13:19:05;5.03;;;4.00;;
56373;SDS011;58212;47.034;7.376;2024-02-21T13:21:32;4.53;;;3.78;;
56373;SDS011;58212;47.034;7.376;2024-02-21T13:23:59;6.15;;;4.10;;
56373;SDS011;58212;47.034;7.376;2024-02-21T13:26:26;8.10;;;4.03;;
56373;SDS011;58212;47.034;7.376;2024-02-21T13:28:54;5.63;;;4.20;;
56373;SDS011;58212;47.034;7.376;2024-02-21T13:31:21;6.38;;;3.75;;
56373;SDS011;58212;47.034;7.376;2024-02-21T13:33:48;6.18;;;3.80;;
56373;SDS011;58212;47.034;7.376;2024-02-21T13:36:15;4.47;;;3.83;;
56373;SDS011;58212;47.034;7.376;2024-02-21T13:38:42;5.25;;;3.55;;
56373;SDS011;58212;47.034;7.376;2024-02-21T13:41:08;3.67;;;3.38;;
56373;SDS011;58212;47.034;7.376;2024-02-21T13:43:35;4.70;;;3.95;;
56373;SDS011;58212;47.034;7.376;2024-02-21T13:46:03;4.05;;;3.65;;
56373;SDS011;58212;47.034;7.376;2024-02-21T13:48:35;4.25;;;3.85;;
56373;SDS011;58212;47.034;7.376;2024-02-21T13:51:01;4.30;;;3.72;;
56373;SDS011;58212;47.034;7.376;2024-02-21T13:53:28;4.30;;;3.90;;
56373;SDS011;58212;47.034;7.376;2024-02-21T13:55:55;5.38;;;3.63;;
56373;SDS011;58212;47.034;7.376;2024-02-21T13:58:22;4.90;;;3.85;;
56373;SDS011;58212;47.034;7.376;2024-02-21T14:00:50;4.47;;;3.90;;
56373;SDS011;58212;47.034;7.376;2024-02-21T14:03:18;6.32;;;3.88;;
56373;SDS011;58212;47.034;7.376;2024-02-21T14:05:46;7.30;;;3.83;;
56373;SDS011;58212;47.034;7.376;2024-02-21T14:08:13;4.38;;;3.88;;
56373;SDS011;58212;47.034;7.376;2024-02-21T14:10:41;4.22;;;3.75;;
56373;SDS011;58212;47.034;7.376;2024-02-21T14:13:08;5.10;;;3.90;;
56373;SDS011;58212;47.034;7.376;2024-02-21T14:15:34;4.10;;;3.70;;
56373;SDS011;58212;47.034;7.376;2024-02-21T14:18:02;4.13;;;3.72;;
56373;SDS011;58212;47.034;7.376;2024-02-21T14:20:32;6.10;;;3.83;;
56373;SDS011;58212;47.034;7.376;2024-02-21T14:22:59;5.13;;;4.10;;
56373;SDS011;58212;47.034;7.376;2024-02-21T14:25:26;4.38;;;3.97;;
56373;SDS011;58212;47.034;7.376;2024-02-21T14:27:53;5.47;;;3.78;;
56373;SDS011;58212;47.034;7.376;2024-02-21T14:30:19;5.47;;;3.70;;
56373;SDS011;58212;47.034;7.376;2024-02-21T14:32:46;4.80;;;4.07;;
56373;SDS011;58212;47.034;7.376;2024-02-21T14:35:13;4.47;;;4.03;;
56373;SDS011;58212;47.034;7.376;2024-02-21T14:37:42;5.35;;;3.45;;
56373;SDS011;58212;47.034;7.376;2024-02-21T14:40:09;4.10;;;3.47;;
56373;SDS011;58212;47.034;7.376;2024-02-21T14:42:37;4.22;;;3.50;;
56373;SDS011;58212;47.034;7.376;2024-02-21T14:45:04;4.50;;;3.67;;
56373;SDS011;58212;47.034;7.376;2024-02-21T14:47:31;5.40;;;3.85;;
56373;SDS011;58212;47.034;7.376;2024-02-21T14:49:59;5.20;;;3.75;;